Terminal Aerodrome Forecast
Issued by NWS

Home | Current Version | Previous Version | Text Only | Print | Product List | Glossary On
Versions: 1 2 3 4 5 6 7 8 9 10 11 12 13 14
793
FTUS43 KIND 302320
TAFLAF
TAF
KLAF 302320Z 3100/3124 26006KT P6SM SKC
     FM310900 VRB02KT P6SM FEW060 BKN250
     FM311400 13006KT P6SM SCT050 BKN200
      AMD LTD TO CLD VIS AND WIND 3101/3113=

USA.gov is the U.S. government's official web portal to all federal, state and local government web resources and services.